sensor_id;sensor_type;location;lat;lon;timestamp;P1;durP1;ratioP1;P2;durP2;ratioP2
51824;SDS011;37879;52.986;6.282;2023-09-18T00:00:44;24.77;;;20.58;;
51824;SDS011;37879;52.986;6.282;2023-09-18T00:03:11;24.30;;;20.95;;
51824;SDS011;37879;52.986;6.282;2023-09-18T00:05:36;22.73;;;19.90;;
51824;SDS011;37879;52.986;6.282;2023-09-18T00:08:02;25.40;;;21.05;;
51824;SDS011;37879;52.986;6.282;2023-09-18T00:10:28;24.65;;;19.88;;
51824;SDS011;37879;52.986;6.282;2023-09-18T00:12:55;27.95;;;20.48;;
51824;SDS011;37879;52.986;6.282;2023-09-18T00:15:22;26.10;;;19.95;;
51824;SDS011;37879;52.986;6.282;2023-09-18T00:17:47;23.60;;;19.75;;
51824;SDS011;37879;52.986;6.282;2023-09-18T00:20:13;28.52;;;21.15;;
51824;SDS011;37879;52.986;6.282;2023-09-18T00:22:41;25.70;;;20.58;;
51824;SDS011;37879;52.986;6.282;2023-09-18T00:25:07;25.00;;;20.35;;
51824;SDS011;37879;52.986;6.282;2023-09-18T00:27:33;28.70;;;21.58;;
51824;SDS011;37879;52.986;6.282;2023-09-18T00:30:01;29.80;;;22.05;;
51824;SDS011;37879;52.986;6.282;2023-09-18T00:32:29;27.58;;;20.55;;
51824;SDS011;37879;52.986;6.282;2023-09-18T00:34:55;25.40;;;19.15;;
51824;SDS011;37879;52.986;6.282;2023-09-18T00:37:21;30.42;;;21.08;;
51824;SDS011;37879;52.986;6.282;2023-09-18T00:39:47;28.02;;;20.75;;
51824;SDS011;37879;52.986;6.282;2023-09-18T00:42:14;27.52;;;20.90;;
51824;SDS011;37879;52.986;6.282;2023-09-18T00:44:41;28.08;;;21.38;;
51824;SDS011;37879;52.986;6.282;2023-09-18T00:47:10;30.73;;;20.90;;
51824;SDS011;37879;52.986;6.282;2023-09-18T00:49:38;28.55;;;20.52;;
51824;SDS011;37879;52.986;6.282;2023-09-18T00:52:05;27.50;;;21.13;;
51824;SDS011;37879;52.986;6.282;2023-09-18T00:54:32;29.20;;;20.42;;
51824;SDS011;37879;52.986;6.282;2023-09-18T00:57:00;28.33;;;21.80;;
51824;SDS011;37879;52.986;6.282;2023-09-18T00:59:25;28.65;;;21.58;;
51824;SDS011;37879;52.986;6.282;2023-09-18T01:01:51;29.02;;;20.70;;
51824;SDS011;37879;52.986;6.282;2023-09-18T01:04:17;26.33;;;21.50;;
51824;SDS011;37879;52.986;6.282;2023-09-18T01:06:44;25.20;;;20.83;;
51824;SDS011;37879;52.986;6.282;2023-09-18T01:09:10;28.20;;;21.83;;
51824;SDS011;37879;52.986;6.282;2023-09-18T01:17:15;23.52;;;18.55;;
51824;SDS011;37879;52.986;6.282;2023-09-18T01:22:16;25.50;;;19.70;;
51824;SDS011;37879;52.986;6.282;2023-09-18T01:24:43;25.92;;;19.73;;
51824;SDS011;37879;52.986;6.282;2023-09-18T01:27:11;23.10;;;19.52;;
51824;SDS011;37879;52.986;6.282;2023-09-18T01:29:44;22.52;;;18.52;;
51824;SDS011;37879;52.986;6.282;2023-09-18T01:32:10;24.77;;;19.17;;
51824;SDS011;37879;52.986;6.282;2023-09-18T01:34:37;24.95;;;20.17;;
51824;SDS011;37879;52.986;6.282;2023-09-18T01:37:07;23.35;;;18.95;;
51824;SDS011;37879;52.986;6.282;2023-09-18T01:39:34;23.73;;;19.13;;
51824;SDS011;37879;52.986;6.282;2023-09-18T01:42:01;23.02;;;19.15;;
51824;SDS011;37879;52.986;6.282;2023-09-18T01:44:30;25.40;;;20.02;;
51824;SDS011;37879;52.986;6.282;2023-09-18T01:46:58;23.80;;;18.45;;
51824;SDS011;37879;52.986;6.282;2023-09-18T01:49:28;22.25;;;18.48;;
51824;SDS011;37879;52.986;6.282;2023-09-18T01:51:55;24.85;;;18.23;;
51824;SDS011;37879;52.986;6.282;2023-09-18T01:54:21;20.88;;;17.60;;
51824;SDS011;37879;52.986;6.282;2023-09-18T01:56:47;21.95;;;18.58;;
51824;SDS011;37879;52.986;6.282;2023-09-18T01:59:13;22.80;;;18.35;;
51824;SDS011;37879;52.986;6.282;2023-09-18T02:01:38;21.00;;;18.25;;
51824;SDS011;37879;52.986;6.282;2023-09-18T02:04:04;23.25;;;18.65;;
51824;SDS011;37879;52.986;6.282;2023-09-18T02:06:30;21.92;;;19.13;;
51824;SDS011;37879;52.986;6.282;2023-09-18T02:08:56;22.65;;;18.52;;
51824;SDS011;37879;52.986;6.282;2023-09-18T02:11:21;21.85;;;18.98;;
51824;SDS011;37879;52.986;6.282;2023-09-18T02:13:47;23.40;;;19.73;;
51824;SDS011;37879;52.986;6.282;2023-09-18T02:16:12;21.83;;;19.30;;
51824;SDS011;37879;52.986;6.282;2023-09-18T02:18:38;20.60;;;18.35;;
51824;SDS011;37879;52.986;6.282;2023-09-18T02:21:04;21.40;;;17.95;;
51824;SDS011;37879;52.986;6.282;2023-09-18T02:23:29;21.52;;;17.23;;
51824;SDS011;37879;52.986;6.282;2023-09-18T02:25:58;21.38;;;18.42;;
51824;SDS011;37879;52.986;6.282;2023-09-18T02:28:24;20.77;;;17.63;;
51824;SDS011;37879;52.986;6.282;2023-09-18T02:30:50;22.52;;;18.45;;
51824;SDS011;37879;52.986;6.282;2023-09-18T02:33:16;21.20;;;16.80;;
51824;SDS011;37879;52.986;6.282;2023-09-18T02:35:42;24.05;;;18.98;;
51824;SDS011;37879;52.986;6.282;2023-09-18T02:38:08;23.98;;;17.65;;
51824;SDS011;37879;52.986;6.282;2023-09-18T02:40:34;20.63;;;18.33;;
51824;SDS011;37879;52.986;6.282;2023-09-18T02:43:00;21.50;;;17.83;;
51824;SDS011;37879;52.986;6.282;2023-09-18T02:45:27;21.75;;;17.77;;
51824;SDS011;37879;52.986;6.282;2023-09-18T02:47:53;21.40;;;18.02;;
51824;SDS011;37879;52.986;6.282;2023-09-18T02:50:18;20.65;;;17.58;;
51824;SDS011;37879;52.986;6.282;2023-09-18T02:52:44;21.08;;;18.88;;
51824;SDS011;37879;52.986;6.282;2023-09-18T02:55:09;22.10;;;19.02;;
51824;SDS011;37879;52.986;6.282;2023-09-18T02:57:35;22.52;;;19.58;;
51824;SDS011;37879;52.986;6.282;2023-09-18T03:00:01;22.08;;;19.23;;
51824;SDS011;37879;52.986;6.282;2023-09-18T03:02:28;22.30;;;19.05;;
51824;SDS011;37879;52.986;6.282;2023-09-18T03:04:55;21.75;;;18.70;;
51824;SDS011;37879;52.986;6.282;2023-09-18T03:07:21;21.13;;;17.45;;
51824;SDS011;37879;52.986;6.282;2023-09-18T03:09:47;22.10;;;19.30;;
51824;SDS011;37879;52.986;6.282;2023-09-18T03:12:13;24.80;;;19.63;;
51824;SDS011;37879;52.986;6.282;2023-09-18T03:14:38;21.73;;;19.33;;
51824;SDS011;37879;52.986;6.282;2023-09-18T03:17:04;21.52;;;18.65;;
51824;SDS011;37879;52.986;6.282;2023-09-18T03:19:30;24.85;;;20.30;;
51824;SDS011;37879;52.986;6.282;2023-09-18T03:21:55;21.88;;;19.23;;
51824;SDS011;37879;52.986;6.282;2023-09-18T03:24:21;22.27;;;19.10;;
51824;SDS011;37879;52.986;6.282;2023-09-18T03:26:47;22.23;;;19.00;;
51824;SDS011;37879;52.986;6.282;2023-09-18T03:29:14;19.92;;;17.80;;
51824;SDS011;37879;52.986;6.282;2023-09-18T03:31:40;22.35;;;18.73;;
51824;SDS011;37879;52.986;6.282;2023-09-18T03:34:05;21.38;;;18.70;;
51824;SDS011;37879;52.986;6.282;2023-09-18T03:36:31;23.67;;;19.27;;
51824;SDS011;37879;52.986;6.282;2023-09-18T03:38:57;21.30;;;18.80;;
51824;SDS011;37879;52.986;6.282;2023-09-18T03:41:23;23.48;;;20.98;;
51824;SDS011;37879;52.986;6.282;2023-09-18T03:43:49;20.25;;;18.08;;
51824;SDS011;37879;52.986;6.282;2023-09-18T03:46:15;20.65;;;18.40;;
51824;SDS011;37879;52.986;6.282;2023-09-18T03:48:41;21.15;;;18.85;;
51824;SDS011;37879;52.986;6.282;2023-09-18T03:51:06;21.08;;;18.77;;
51824;SDS011;37879;52.986;6.282;2023-09-18T03:53:33;21.05;;;18.77;;
51824;SDS011;37879;52.986;6.282;2023-09-18T03:55:59;22.55;;;18.20;;
51824;SDS011;37879;52.986;6.282;2023-09-18T03:58:25;21.40;;;18.75;;
51824;SDS011;37879;52.986;6.282;2023-09-18T04:00:51;20.45;;;16.83;;
51824;SDS011;37879;52.986;6.282;2023-09-18T04:03:18;21.77;;;18.25;;
51824;SDS011;37879;52.986;6.282;2023-09-18T04:05:43;22.92;;;18.75;;
51824;SDS011;37879;52.986;6.282;2023-09-18T04:08:09;18.50;;;16.55;;
51824;SDS011;37879;52.986;6.282;2023-09-18T04:10:36;20.95;;;17.42;;
51824;SDS011;37879;52.986;6.282;2023-09-18T04:13:02;18.95;;;15.25;;
51824;SDS011;37879;52.986;6.282;2023-09-18T04:15:27;17.42;;;15.00;;
51824;SDS011;37879;52.986;6.282;2023-09-18T04:17:55;18.70;;;16.05;;
51824;SDS011;37879;52.986;6.282;2023-09-18T04:20:21;22.30;;;16.83;;
51824;SDS011;37879;52.986;6.282;2023-09-18T04:23:16;18.05;;;16.20;;
51824;SDS011;37879;52.986;6.282;2023-09-18T04:25:44;22.73;;;16.13;;
51824;SDS011;37879;52.986;6.282;2023-09-18T04:28:11;17.50;;;14.88;;
51824;SDS011;37879;52.986;6.282;2023-09-18T04:30:40;20.38;;;14.95;;
51824;SDS011;37879;52.986;6.282;2023-09-18T04:33:06;16.08;;;14.48;;
51824;SDS011;37879;52.986;6.282;2023-09-18T04:35:31;21.25;;;16.65;;
51824;SDS011;37879;52.986;6.282;2023-09-18T04:37:58;21.77;;;15.40;;
51824;SDS011;37879;52.986;6.282;2023-09-18T04:40:24;16.23;;;13.88;;
51824;SDS011;37879;52.986;6.282;2023-09-18T04:42:51;15.65;;;13.95;;
51824;SDS011;37879;52.986;6.282;2023-09-18T04:45:17;15.77;;;13.38;;
51824;SDS011;37879;52.986;6.282;2023-09-18T04:47:43;18.58;;;14.95;;
51824;SDS011;37879;52.986;6.282;2023-09-18T04:50:09;20.52;;;14.90;;
51824;SDS011;37879;52.986;6.282;2023-09-18T04:52:35;16.15;;;13.75;;
51824;SDS011;37879;52.986;6.282;2023-09-18T04:55:01;16.98;;;13.13;;
51824;SDS011;37879;52.986;6.282;2023-09-18T04:57:28;17.65;;;13.85;;
51824;SDS011;37879;52.986;6.282;2023-09-18T04:59:53;16.00;;;12.45;;
51824;SDS011;37879;52.986;6.282;2023-09-18T05:02:19;15.75;;;14.15;;
51824;SDS011;37879;52.986;6.282;2023-09-18T05:04:45;16.75;;;14.30;;
51824;SDS011;37879;52.986;6.282;2023-09-18T05:07:10;15.93;;;13.07;;
51824;SDS011;37879;52.986;6.282;2023-09-18T05:09:36;15.57;;;13.50;;
51824;SDS011;37879;52.986;6.282;2023-09-18T05:12:03;14.95;;;12.80;;
51824;SDS011;37879;52.986;6.282;2023-09-18T05:14:30;13.88;;;12.50;;
51824;SDS011;37879;52.986;6.282;2023-09-18T05:16:55;17.05;;;13.27;;
51824;SDS011;37879;52.986;6.282;2023-09-18T05:19:21;15.32;;;12.85;;
51824;SDS011;37879;52.986;6.282;2023-09-18T05:21:46;14.23;;;12.18;;
51824;SDS011;37879;52.986;6.282;2023-09-18T05:24:13;19.00;;;14.63;;
51824;SDS011;37879;52.986;6.282;2023-09-18T05:26:38;15.82;;;12.30;;
51824;SDS011;37879;52.986;6.282;2023-09-18T05:29:04;15.80;;;12.77;;
51824;SDS011;37879;52.986;6.282;2023-09-18T05:31:30;15.55;;;12.35;;
51824;SDS011;37879;52.986;6.282;2023-09-18T05:33:55;15.88;;;11.88;;
51824;SDS011;37879;52.986;6.282;2023-09-18T05:36:21;13.93;;;11.40;;
51824;SDS011;37879;52.986;6.282;2023-09-18T05:38:47;13.50;;;11.77;;
51824;SDS011;37879;52.986;6.282;2023-09-18T05:41:12;14.32;;;11.13;;
51824;SDS011;37879;52.986;6.282;2023-09-18T05:43:38;14.48;;;12.00;;
51824;SDS011;37879;52.986;6.282;2023-09-18T05:46:03;15.23;;;12.35;;
51824;SDS011;37879;52.986;6.282;2023-09-18T05:48:29;14.27;;;11.23;;
51824;SDS011;37879;52.986;6.282;2023-09-18T05:50:55;14.35;;;11.05;;
51824;SDS011;37879;52.986;6.282;2023-09-18T05:53:20;15.18;;;11.35;;
51824;SDS011;37879;52.986;6.282;2023-09-18T05:55:46;12.25;;;11.00;;
51824;SDS011;37879;52.986;6.282;2023-09-18T05:58:13;12.68;;;11.35;;
51824;SDS011;37879;52.986;6.282;2023-09-18T06:00:39;14.48;;;11.63;;
51824;SDS011;37879;52.986;6.282;2023-09-18T06:03:05;14.18;;;11.50;;
51824;SDS011;37879;52.986;6.282;2023-09-18T06:05:31;12.75;;;10.85;;
51824;SDS011;37879;52.986;6.282;2023-09-18T06:07:59;13.20;;;11.52;;
51824;SDS011;37879;52.986;6.282;2023-09-18T06:10:25;11.95;;;10.73;;
51824;SDS011;37879;52.986;6.282;2023-09-18T06:12:50;14.55;;;11.85;;
51824;SDS011;37879;52.986;6.282;2023-09-18T06:15:16;15.95;;;10.93;;
51824;SDS011;37879;52.986;6.282;2023-09-18T06:17:42;13.88;;;11.43;;
51824;SDS011;37879;52.986;6.282;2023-09-18T06:20:09;11.55;;;10.23;;
51824;SDS011;37879;52.986;6.282;2023-09-18T06:22:37;11.88;;;10.38;;
51824;SDS011;37879;52.986;6.282;2023-09-18T06:25:07;13.13;;;10.75;;
51824;SDS011;37879;52.986;6.282;2023-09-18T06:27:37;13.88;;;11.07;;
51824;SDS011;37879;52.986;6.282;2023-09-18T06:30:03;14.65;;;11.68;;
51824;SDS011;37879;52.986;6.282;2023-09-18T06:32:32;14.73;;;12.13;;
51824;SDS011;37879;52.986;6.282;2023-09-18T06:34:59;14.15;;;11.73;;
51824;SDS011;37879;52.986;6.282;2023-09-18T06:37:25;16.88;;;11.98;;
51824;SDS011;37879;52.986;6.282;2023-09-18T06:39:51;14.30;;;11.73;;
51824;SDS011;37879;52.986;6.282;2023-09-18T06:42:17;17.35;;;12.70;;
51824;SDS011;37879;52.986;6.282;2023-09-18T06:44:42;14.20;;;11.75;;
51824;SDS011;37879;52.986;6.282;2023-09-18T06:47:09;14.95;;;12.32;;
51824;SDS011;37879;52.986;6.282;2023-09-18T06:49:35;14.80;;;13.00;;
51824;SDS011;37879;52.986;6.282;2023-09-18T06:52:00;16.98;;;13.25;;
51824;SDS011;37879;52.986;6.282;2023-09-18T06:54:26;16.48;;;12.55;;
51824;SDS011;37879;52.986;6.282;2023-09-18T06:56:52;15.02;;;12.95;;
51824;SDS011;37879;52.986;6.282;2023-09-18T06:59:18;16.48;;;14.10;;
51824;SDS011;37879;52.986;6.282;2023-09-18T07:01:43;19.52;;;14.98;;
51824;SDS011;37879;52.986;6.282;2023-09-18T07:04:09;16.55;;;14.38;;
51824;SDS011;37879;52.986;6.282;2023-09-18T07:06:35;20.35;;;14.93;;
51824;SDS011;37879;52.986;6.282;2023-09-18T07:09:00;20.13;;;15.10;;
51824;SDS011;37879;52.986;6.282;2023-09-18T07:11:28;20.63;;;15.40;;
51824;SDS011;37879;52.986;6.282;2023-09-18T07:13:55;19.88;;;15.88;;
51824;SDS011;37879;52.986;6.282;2023-09-18T07:16:20;19.05;;;14.88;;
51824;SDS011;37879;52.986;6.282;2023-09-18T07:18:46;15.98;;;13.95;;
51824;SDS011;37879;52.986;6.282;2023-09-18T07:21:11;16.23;;;12.65;;
51824;SDS011;37879;52.986;6.282;2023-09-18T07:23:39;15.02;;;12.93;;
51824;SDS011;37879;52.986;6.282;2023-09-18T07:26:05;15.93;;;12.20;;
51824;SDS011;37879;52.986;6.282;2023-09-18T07:28:31;18.48;;;11.95;;
51824;SDS011;37879;52.986;6.282;2023-09-18T07:30:57;13.02;;;10.90;;
51824;SDS011;37879;52.986;6.282;2023-09-18T07:33:28;14.23;;;10.90;;
51824;SDS011;37879;52.986;6.282;2023-09-18T07:35:53;16.20;;;11.93;;
51824;SDS011;37879;52.986;6.282;2023-09-18T07:38:19;15.05;;;11.98;;
51824;SDS011;37879;52.986;6.282;2023-09-18T07:40:45;15.73;;;12.80;;
51824;SDS011;37879;52.986;6.282;2023-09-18T07:43:12;14.45;;;11.07;;
51824;SDS011;37879;52.986;6.282;2023-09-18T07:45:39;15.88;;;13.18;;
51824;SDS011;37879;52.986;6.282;2023-09-18T07:48:05;16.00;;;12.07;;
51824;SDS011;37879;52.986;6.282;2023-09-18T07:50:32;16.95;;;14.30;;
51824;SDS011;37879;52.986;6.282;2023-09-18T07:52:58;17.08;;;13.38;;
51824;SDS011;37879;52.986;6.282;2023-09-18T07:55:24;16.52;;;13.18;;
51824;SDS011;37879;52.986;6.282;2023-09-18T07:57:51;18.75;;;12.95;;
51824;SDS011;37879;52.986;6.282;2023-09-18T08:00:16;14.90;;;12.65;;
51824;SDS011;37879;52.986;6.282;2023-09-18T08:02:43;14.07;;;12.23;;
51824;SDS011;37879;52.986;6.282;2023-09-18T08:05:09;16.00;;;12.85;;
51824;SDS011;37879;52.986;6.282;2023-09-18T08:07:36;19.85;;;14.13;;
51824;SDS011;37879;52.986;6.282;2023-09-18T08:10:05;18.05;;;13.48;;
51824;SDS011;37879;52.986;6.282;2023-09-18T08:12:33;19.55;;;13.60;;
51824;SDS011;37879;52.986;6.282;2023-09-18T08:14:59;16.42;;;13.38;;
51824;SDS011;37879;52.986;6.282;2023-09-18T08:17:25;17.25;;;12.73;;
51824;SDS011;37879;52.986;6.282;2023-09-18T08:19:51;14.57;;;12.98;;
51824;SDS011;37879;52.986;6.282;2023-09-18T08:22:18;15.73;;;12.38;;
51824;SDS011;37879;52.986;6.282;2023-09-18T08:24:46;18.35;;;12.68;;
51824;SDS011;37879;52.986;6.282;2023-09-18T08:27:14;16.38;;;13.10;;
51824;SDS011;37879;52.986;6.282;2023-09-18T08:29:43;18.77;;;13.20;;
51824;SDS011;37879;52.986;6.282;2023-09-18T08:32:09;18.20;;;13.20;;
51824;SDS011;37879;52.986;6.282;2023-09-18T08:34:35;18.35;;;13.30;;
51824;SDS011;37879;52.986;6.282;2023-09-18T08:37:01;15.57;;;13.02;;
51824;SDS011;37879;52.986;6.282;2023-09-18T08:39:27;16.30;;;12.63;;
51824;SDS011;37879;52.986;6.282;2023-09-18T08:41:54;14.77;;;11.68;;
51824;SDS011;37879;52.986;6.282;2023-09-18T08:44:24;14.80;;;11.32;;
51824;SDS011;37879;52.986;6.282;2023-09-18T08:46:53;16.17;;;12.23;;
51824;SDS011;37879;52.986;6.282;2023-09-18T08:49:20;16.63;;;11.70;;
51824;SDS011;37879;52.986;6.282;2023-09-18T08:51:49;14.70;;;10.40;;
51824;SDS011;37879;52.986;6.282;2023-09-18T08:54:19;13.10;;;10.43;;
51824;SDS011;37879;52.986;6.282;2023-09-18T08:56:45;12.90;;;10.40;;
51824;SDS011;37879;52.986;6.282;2023-09-18T08:59:11;11.65;;;9.35;;
51824;SDS011;37879;52.986;6.282;2023-09-18T09:01:38;11.18;;;9.32;;
51824;SDS011;37879;52.986;6.282;2023-09-18T09:04:04;10.80;;;9.20;;
51824;SDS011;37879;52.986;6.282;2023-09-18T09:06:30;10.95;;;8.77;;
51824;SDS011;37879;52.986;6.282;2023-09-18T09:08:56;10.00;;;8.00;;
51824;SDS011;37879;52.986;6.282;2023-09-18T09:11:22;11.07;;;8.15;;
51824;SDS011;37879;52.986;6.282;2023-09-18T09:13:47;11.45;;;8.60;;
51824;SDS011;37879;52.986;6.282;2023-09-18T09:16:33;10.23;;;8.60;;
51824;SDS011;37879;52.986;6.282;2023-09-18T09:18:59;10.45;;;8.55;;
51824;SDS011;37879;52.986;6.282;2023-09-18T09:21:27;12.35;;;9.07;;
51824;SDS011;37879;52.986;6.282;2023-09-18T09:24:04;11.65;;;9.32;;
51824;SDS011;37879;52.986;6.282;2023-09-18T09:26:30;11.82;;;9.15;;
51824;SDS011;37879;52.986;6.282;2023-09-18T09:28:56;12.05;;;10.35;;
51824;SDS011;37879;52.986;6.282;2023-09-18T09:33:52;11.98;;;9.80;;
51824;SDS011;37879;52.986;6.282;2023-09-18T09:36:19;11.50;;;9.63;;
51824;SDS011;37879;52.986;6.282;2023-09-18T09:38:45;12.82;;;11.32;;
51824;SDS011;37879;52.986;6.282;2023-09-18T09:41:14;14.77;;;11.25;;
51824;SDS011;37879;52.986;6.282;2023-09-18T09:43:42;15.70;;;11.25;;
51824;SDS011;37879;52.986;6.282;2023-09-18T09:46:18;14.75;;;12.05;;
51824;SDS011;37879;52.986;6.282;2023-09-18T09:51:26;14.98;;;12.20;;
51824;SDS011;37879;52.986;6.282;2023-09-18T09:53:52;16.92;;;13.35;;
51824;SDS011;37879;52.986;6.282;2023-09-18T09:56:18;15.20;;;13.13;;
51824;SDS011;37879;52.986;6.282;2023-09-18T09:59:00;14.20;;;12.70;;
51824;SDS011;37879;52.986;6.282;2023-09-18T10:01:28;14.80;;;12.70;;
51824;SDS011;37879;52.986;6.282;2023-09-18T10:03:56;14.57;;;13.00;;
51824;SDS011;37879;52.986;6.282;2023-09-18T10:06:23;15.32;;;13.35;;
51824;SDS011;37879;52.986;6.282;2023-09-18T10:08:50;13.60;;;12.18;;
51824;SDS011;37879;52.986;6.282;2023-09-18T10:11:17;13.00;;;11.70;;
51824;SDS011;37879;52.986;6.282;2023-09-18T10:13:47;11.70;;;10.60;;
51824;SDS011;37879;52.986;6.282;2023-09-18T10:16:19;12.55;;;11.20;;
51824;SDS011;37879;52.986;6.282;2023-09-18T10:24:27;11.90;;;10.80;;
51824;SDS011;37879;52.986;6.282;2023-09-18T10:26:58;11.13;;;10.00;;
51824;SDS011;37879;52.986;6.282;2023-09-18T10:29:26;10.55;;;9.43;;
51824;SDS011;37879;52.986;6.282;2023-09-18T10:31:53;10.73;;;9.63;;
51824;SDS011;37879;52.986;6.282;2023-09-18T10:34:20;10.93;;;9.82;;
51824;SDS011;37879;52.986;6.282;2023-09-18T10:36:47;9.15;;;8.23;;
51824;SDS011;37879;52.986;6.282;2023-09-18T10:39:15;11.13;;;8.18;;
51824;SDS011;37879;52.986;6.282;2023-09-18T10:41:48;8.30;;;7.13;;
51824;SDS011;37879;52.986;6.282;2023-09-18T10:44:16;8.80;;;7.70;;
51824;SDS011;37879;52.986;6.282;2023-09-18T10:46:44;9.02;;;7.38;;
51824;SDS011;37879;52.986;6.282;2023-09-18T10:49:10;7.97;;;7.18;;
51824;SDS011;37879;52.986;6.282;2023-09-18T10:51:37;7.50;;;6.68;;
51824;SDS011;37879;52.986;6.282;2023-09-18T10:54:07;8.20;;;6.60;;
51824;SDS011;37879;52.986;6.282;2023-09-18T10:56:34;7.53;;;6.07;;
51824;SDS011;37879;52.986;6.282;2023-09-18T10:59:00;6.88;;;5.80;;
51824;SDS011;37879;52.986;6.282;2023-09-18T11:01:29;6.53;;;5.93;;
51824;SDS011;37879;52.986;6.282;2023-09-18T11:04:03;7.47;;;5.82;;
51824;SDS011;37879;52.986;6.282;2023-09-18T11:07:18;7.03;;;5.70;;
51824;SDS011;37879;52.986;6.282;2023-09-18T11:09:19;6.03;;;5.18;;
51824;SDS011;37879;52.986;6.282;2023-09-18T11:11:52;7.72;;;5.35;;
51824;SDS011;37879;52.986;6.282;2023-09-18T11:14:42;7.47;;;5.40;;
51824;SDS011;37879;52.986;6.282;2023-09-18T11:20:17;5.57;;;5.00;;
51824;SDS011;37879;52.986;6.282;2023-09-18T11:25:38;7.25;;;5.00;;
51824;SDS011;37879;52.986;6.282;2023-09-18T11:28:07;5.53;;;4.85;;
51824;SDS011;37879;52.986;6.282;2023-09-18T11:30:54;5.00;;;4.55;;
51824;SDS011;37879;52.986;6.282;2023-09-18T11:33:35;7.30;;;5.30;;
51824;SDS011;37879;52.986;6.282;2023-09-18T11:36:06;6.03;;;4.65;;
51824;SDS011;37879;52.986;6.282;2023-09-18T11:41:24;6.05;;;4.88;;
51824;SDS011;37879;52.986;6.282;2023-09-18T11:43:51;5.68;;;5.13;;
51824;SDS011;37879;52.986;6.282;2023-09-18T11:46:18;7.10;;;4.70;;
51824;SDS011;37879;52.986;6.282;2023-09-18T11:48:46;7.20;;;4.85;;
51824;SDS011;37879;52.986;6.282;2023-09-18T11:51:15;5.75;;;5.07;;
51824;SDS011;37879;52.986;6.282;2023-09-18T11:53:47;5.55;;;4.40;;
51824;SDS011;37879;52.986;6.282;2023-09-18T11:56:14;6.78;;;4.85;;
51824;SDS011;37879;52.986;6.282;2023-09-18T11:58:49;5.88;;;4.90;;
51824;SDS011;37879;52.986;6.282;2023-09-18T12:01:17;5.88;;;4.55;;
51824;SDS011;37879;52.986;6.282;2023-09-18T12:03:44;6.80;;;5.05;;
51824;SDS011;37879;52.986;6.282;2023-09-18T12:06:10;6.18;;;4.32;;
51824;SDS011;37879;52.986;6.282;2023-09-18T12:08:38;6.68;;;5.13;;
51824;SDS011;37879;52.986;6.282;2023-09-18T12:11:06;5.10;;;4.60;;
51824;SDS011;37879;52.986;6.282;2023-09-18T12:13:32;6.25;;;5.03;;
51824;SDS011;37879;52.986;6.282;2023-09-18T12:15:58;4.53;;;4.00;;
51824;SDS011;37879;52.986;6.282;2023-09-18T12:18:30;5.55;;;4.20;;
51824;SDS011;37879;52.986;6.282;2023-09-18T12:20:59;5.97;;;4.25;;
51824;SDS011;37879;52.986;6.282;2023-09-18T12:23:29;6.63;;;4.22;;
51824;SDS011;37879;52.986;6.282;2023-09-18T12:26:01;4.05;;;3.70;;
51824;SDS011;37879;52.986;6.282;2023-09-18T12:28:28;5.68;;;4.03;;
51824;SDS011;37879;52.986;6.282;2023-09-18T12:30:55;8.95;;;4.05;;
51824;SDS011;37879;52.986;6.282;2023-09-18T12:33:22;5.63;;;3.95;;
51824;SDS011;37879;52.986;6.282;2023-09-18T12:35:49;5.85;;;3.72;;
51824;SDS011;37879;52.986;6.282;2023-09-18T12:38:16;6.28;;;3.70;;
51824;SDS011;37879;52.986;6.282;2023-09-18T12:40:51;6.63;;;4.50;;
51824;SDS011;37879;52.986;6.282;2023-09-18T12:43:18;4.63;;;3.72;;
51824;SDS011;37879;52.986;6.282;2023-09-18T12:45:45;5.88;;;4.22;;
51824;SDS011;37879;52.986;6.282;2023-09-18T12:48:12;5.47;;;4.07;;
51824;SDS011;37879;52.986;6.282;2023-09-18T12:50:38;4.63;;;4.22;;
51824;SDS011;37879;52.986;6.282;2023-09-18T12:53:08;6.07;;;4.57;;
51824;SDS011;37879;52.986;6.282;2023-09-18T12:55:38;4.82;;;3.83;;
51824;SDS011;37879;52.986;6.282;2023-09-18T12:58:04;5.15;;;4.60;;
51824;SDS011;37879;52.986;6.282;2023-09-18T13:00:32;6.68;;;4.80;;
51824;SDS011;37879;52.986;6.282;2023-09-18T13:03:00;5.93;;;4.40;;
51824;SDS011;37879;52.986;6.282;2023-09-18T13:05:26;4.85;;;4.35;;
51824;SDS011;37879;52.986;6.282;2023-09-18T13:07:52;6.20;;;4.47;;
51824;SDS011;37879;52.986;6.282;2023-09-18T13:10:19;4.93;;;3.83;;
51824;SDS011;37879;52.986;6.282;2023-09-18T13:12:50;4.90;;;3.88;;
51824;SDS011;37879;52.986;6.282;2023-09-18T13:15:33;4.38;;;3.97;;
51824;SDS011;37879;52.986;6.282;2023-09-18T13:18:00;6.40;;;4.15;;
51824;SDS011;37879;52.986;6.282;2023-09-18T13:20:33;5.15;;;4.60;;
51824;SDS011;37879;52.986;6.282;2023-09-18T13:22:59;4.90;;;4.40;;
51824;SDS011;37879;52.986;6.282;2023-09-18T13:25:32;5.50;;;4.55;;
51824;SDS011;37879;52.986;6.282;2023-09-18T13:28:00;8.13;;;4.93;;
51824;SDS011;37879;52.986;6.282;2023-09-18T13:30:29;6.18;;;4.30;;
51824;SDS011;37879;52.986;6.282;2023-09-18T13:33:06;5.10;;;3.97;;
51824;SDS011;37879;52.986;6.282;2023-09-18T13:35:33;7.00;;;5.15;;
51824;SDS011;37879;52.986;6.282;2023-09-18T13:38:00;4.65;;;4.25;;
51824;SDS011;37879;52.986;6.282;2023-09-18T13:40:29;3.90;;;3.35;;
51824;SDS011;37879;52.986;6.282;2023-09-18T13:42:54;5.57;;;4.25;;
51824;SDS011;37879;52.986;6.282;2023-09-18T13:45:20;5.60;;;4.68;;
51824;SDS011;37879;52.986;6.282;2023-09-18T13:47:46;7.80;;;4.65;;
51824;SDS011;37879;52.986;6.282;2023-09-18T13:50:14;6.15;;;3.83;;
51824;SDS011;37879;52.986;6.282;2023-09-18T13:52:39;5.20;;;4.00;;
51824;SDS011;37879;52.986;6.282;2023-09-18T13:55:05;6.20;;;3.45;;
51824;SDS011;37879;52.986;6.282;2023-09-18T13:57:31;5.95;;;3.75;;
51824;SDS011;37879;52.986;6.282;2023-09-18T13:59:57;5.10;;;3.97;;
51824;SDS011;37879;52.986;6.282;2023-09-18T14:02:24;4.97;;;4.47;;
51824;SDS011;37879;52.986;6.282;2023-09-18T14:04:52;4.38;;;3.55;;
51824;SDS011;37879;52.986;6.282;2023-09-18T14:07:19;4.03;;;3.08;;
51824;SDS011;37879;52.986;6.282;2023-09-18T14:09:45;6.25;;;3.72;;
51824;SDS011;37879;52.986;6.282;2023-09-18T14:12:13;4.43;;;3.20;;
51824;SDS011;37879;52.986;6.282;2023-09-18T14:14:42;5.70;;;3.85;;
51824;SDS011;37879;52.986;6.282;2023-09-18T14:17:09;4.60;;;3.78;;
51824;SDS011;37879;52.986;6.282;2023-09-18T14:19:35;5.32;;;4.20;;
51824;SDS011;37879;52.986;6.282;2023-09-18T14:22:03;4.28;;;3.88;;
51824;SDS011;37879;52.986;6.282;2023-09-18T14:24:30;5.80;;;4.88;;
51824;SDS011;37879;52.986;6.282;2023-09-18T14:26:59;4.57;;;4.18;;
51824;SDS011;37879;52.986;6.282;2023-09-18T14:29:27;5.95;;;4.10;;
51824;SDS011;37879;52.986;6.282;2023-09-18T14:31:52;5.25;;;4.38;;
51824;SDS011;37879;52.986;6.282;2023-09-18T14:34:18;5.07;;;3.92;;
51824;SDS011;37879;52.986;6.282;2023-09-18T14:36:44;5.18;;;4.65;;
51824;SDS011;37879;52.986;6.282;2023-09-18T14:39:10;7.97;;;4.88;;
51824;SDS011;37879;52.986;6.282;2023-09-18T14:41:36;5.30;;;4.40;;
51824;SDS011;37879;52.986;6.282;2023-09-18T14:44:03;6.00;;;4.15;;
51824;SDS011;37879;52.986;6.282;2023-09-18T14:46:33;7.35;;;4.43;;
51824;SDS011;37879;52.986;6.282;2023-09-18T14:48:59;5.40;;;3.90;;
51824;SDS011;37879;52.986;6.282;2023-09-18T14:51:26;5.20;;;3.70;;
51824;SDS011;37879;52.986;6.282;2023-09-18T14:53:53;5.75;;;4.63;;
51824;SDS011;37879;52.986;6.282;2023-09-18T14:56:19;5.57;;;3.90;;